Manhattan Bridge — 3FWL4 — position and weather

sailwx.info

Track history (hours):
 
Tides and Currents Weather Stations Pressure Air Temp Water Temp Dewpoint Dewpoint Depression Visibility Wind Speed Wind Dir Waves Ship Positions

Manhattan Bridge

Last reported at 2018-Feb-18 18:41 UTC. Time now 2018-Feb-21 21:26 UTC.
Position N 09°13' W 079°56'.

Length 424.9 m; beam 32.2 m.

Type: Ship (hazmat cat D). MMSI: 374335000.

Date/timePositionNaut miles runAvg speedWind from/ knotsBaromVisibWave heightAir tempDewpointWater temp
2018-Feb-18 18:41N 09°13' W 079°56'1 4.4
2018-Feb-18 18:30N 09°14' W 079°56'2 3.7
2018-Feb-18 17:59N 09°16' W 079°55'0 0.9
2018-Feb-18 17:28N 09°15' W 079°54'0 0.1
2018-Feb-18 16:52N 09°15' W 079°54'0 0.0
2018-Feb-18 16:22N 09°15' W 079°54'0 0.1
2018-Feb-18 15:58N 09°15' W 079°54'0 0.0
2018-Feb-18 14:46N 09°15' W 079°54'0 0.0
2018-Feb-18 13:28N 09°15' W 079°54'0 0.4
2018-Feb-18 13:01N 09°15' W 079°55'0 0.8
2018-Feb-18 12:30N 09°16' W 079°55'0 0.7
2018-Feb-18 12:01N 09°16' W 079°55'0 0.5
2018-Feb-18 11:31N 09°16' W 079°55'0 0.5
2018-Feb-18 11:01N 09°17' W 079°55'0 0.0
2018-Feb-18 10:31N 09°17' W 079°55'0 0.5
2018-Feb-18 09:57N 09°17' W 079°55'1 1.8
2018-Feb-18 09:30N 09°18' W 079°55'2 4.5
2018-Feb-18 09:00N 09°20' W 079°55'1 2.2
2018-Feb-18 08:31N 09°21' W 079°55'0 0.5
2018-Feb-18 08:00N 09°21' W 079°55'0 0.0
2018-Feb-18 07:30N 09°21' W 079°55'0 0.0
2018-Feb-18 07:00N 09°21' W 079°55'0 0.0
2018-Feb-18 06:29N 09°21' W 079°55'0 0.0
2018-Feb-18 05:59N 09°21' W 079°55'0 0.0
2018-Feb-18 05:29N 09°21' W 079°55'0 0.0
2018-Feb-18 04:59N 09°21' W 079°55'0 0.0
2018-Feb-18 04:29N 09°21' W 079°55'0 0.0
2018-Feb-18 03:59N 09°21' W 079°55'0 0.0
2018-Feb-18 03:29N 09°21' W 079°55'0 0.0
2018-Feb-18 02:59N 09°21' W 079°55'0 0.0
2018-Feb-18 02:29N 09°21' W 079°55'0 0.0
2018-Feb-18 01:59N 09°21' W 079°55'0 0.0
2018-Feb-18 01:29N 09°21' W 079°55'0 0.0
2018-Feb-18 00:59N 09°21' W 079°55'0 0.0
2018-Feb-18 00:29N 09°21' W 079°55'0 0.0
2018-Feb-17 23:59N 09°21' W 079°55'0 0.0
2018-Feb-17 23:29N 09°21' W 079°55'0 0.0
2018-Feb-17 22:59N 09°21' W 079°55'0 0.0
2018-Feb-17 22:29N 09°21' W 079°55'0 0.0
2018-Feb-17 21:59N 09°21' W 079°55'0 0.0
2018-Feb-17 21:29N 09°21' W 079°55'0 0.0
2018-Feb-17 20:59N 09°21' W 079°55'0 0.0
2018-Feb-17 20:29N 09°21' W 079°55'0 0.0
2018-Feb-17 19:59N 09°21' W 079°55'0 0.0
2018-Feb-17 19:29N 09°21' W 079°55'0 0.0
2018-Feb-17 18:59N 09°21' W 079°55'0 0.0
2018-Feb-17 18:29N 09°21' W 079°55'0 0.0
2018-Feb-17 17:59N 09°21' W 079°55'0 0.0
2018-Feb-17 17:29N 09°21' W 079°55'0 0.0
2018-Feb-17 16:59N 09°21' W 079°55'0 0.0
2018-Feb-17 16:29N 09°21' W 079°55'0 0.0
2018-Feb-17 15:59N 09°21' W 079°55'0 0.0
2018-Feb-17 15:29N 09°21' W 079°55'0 0.0
2018-Feb-17 14:59N 09°21' W 079°55'0 0.0
2018-Feb-17 14:29N 09°21' W 079°55'0 0.5
2018-Feb-17 14:00N 09°21' W 079°55'2 4.6
2018-Feb-17 13:30N 09°23' W 079°55'4 7.0
2018-Feb-17 13:00N 09°27' W 079°55'3 5.3
2018-Feb-17 12:30N 09°29' W 079°54'  
Track history (hours):
 
Tides and Currents Weather Stations Pressure Air Temp Water Temp Dewpoint Dewpoint Depression Visibility Wind Speed Wind Dir Waves Ship Positions

Manhattan Bridge

Last reported at 2018-Feb-18 18:41 UTC. Time now 2018-Feb-21 21:26 UTC.
Position N 09°13' W 079°56'.

Length 424.9 m; beam 32.2 m.

Type: Ship (hazmat cat D). MMSI: 374335000.

Date/timePositionNaut miles runAvg speedWind from/ knotsBaromVisibWave heightAir tempDewpointWater temp
2018-Feb-18 18:41N 09°13' W 079°56'1 4.4
2018-Feb-18 18:30N 09°14' W 079°56'2 3.7
2018-Feb-18 17:59N 09°16' W 079°55'0 0.9
2018-Feb-18 17:28N 09°15' W 079°54'0 0.1
2018-Feb-18 16:52N 09°15' W 079°54'0 0.0
2018-Feb-18 16:22N 09°15' W 079°54'0 0.1
2018-Feb-18 15:58N 09°15' W 079°54'0 0.0
2018-Feb-18 14:46N 09°15' W 079°54'0 0.0
2018-Feb-18 13:28N 09°15' W 079°54'0 0.4
2018-Feb-18 13:01N 09°15' W 079°55'0 0.8
2018-Feb-18 12:30N 09°16' W 079°55'0 0.7
2018-Feb-18 12:01N 09°16' W 079°55'0 0.5
2018-Feb-18 11:31N 09°16' W 079°55'0 0.5
2018-Feb-18 11:01N 09°17' W 079°55'0 0.0
2018-Feb-18 10:31N 09°17' W 079°55'0 0.5
2018-Feb-18 09:57N 09°17' W 079°55'1 1.8
2018-Feb-18 09:30N 09°18' W 079°55'2 4.5
2018-Feb-18 09:00N 09°20' W 079°55'1 2.2
2018-Feb-18 08:31N 09°21' W 079°55'0 0.5
2018-Feb-18 08:00N 09°21' W 079°55'0 0.0
2018-Feb-18 07:30N 09°21' W 079°55'0 0.0
2018-Feb-18 07:00N 09°21' W 079°55'0 0.0
2018-Feb-18 06:29N 09°21' W 079°55'0 0.0
2018-Feb-18 05:59N 09°21' W 079°55'0 0.0
2018-Feb-18 05:29N 09°21' W 079°55'0 0.0
2018-Feb-18 04:59N 09°21' W 079°55'0 0.0
2018-Feb-18 04:29N 09°21' W 079°55'0 0.0
2018-Feb-18 03:59N 09°21' W 079°55'0 0.0
2018-Feb-18 03:29N 09°21' W 079°55'0 0.0
2018-Feb-18 02:59N 09°21' W 079°55'0 0.0
2018-Feb-18 02:29N 09°21' W 079°55'0 0.0
2018-Feb-18 01:59N 09°21' W 079°55'0 0.0
2018-Feb-18 01:29N 09°21' W 079°55'0 0.0
2018-Feb-18 00:59N 09°21' W 079°55'0 0.0
2018-Feb-18 00:29N 09°21' W 079°55'0 0.0
2018-Feb-17 23:59N 09°21' W 079°55'0 0.0
2018-Feb-17 23:29N 09°21' W 079°55'0 0.0
2018-Feb-17 22:59N 09°21' W 079°55'0 0.0
2018-Feb-17 22:29N 09°21' W 079°55'0 0.0
2018-Feb-17 21:59N 09°21' W 079°55'0 0.0
2018-Feb-17 21:29N 09°21' W 079°55'0 0.0
2018-Feb-17 20:59N 09°21' W 079°55'0 0.0
2018-Feb-17 20:29N 09°21' W 079°55'0 0.0
2018-Feb-17 19:59N 09°21' W 079°55'0 0.0
2018-Feb-17 19:29N 09°21' W 079°55'0 0.0
2018-Feb-17 18:59N 09°21' W 079°55'0 0.0
2018-Feb-17 18:29N 09°21' W 079°55'0 0.0
2018-Feb-17 17:59N 09°21' W 079°55'0 0.0
2018-Feb-17 17:29N 09°21' W 079°55'0 0.0
2018-Feb-17 16:59N 09°21' W 079°55'0 0.0
2018-Feb-17 16:29N 09°21' W 079°55'0 0.0
2018-Feb-17 15:59N 09°21' W 079°55'0 0.0
2018-Feb-17 15:29N 09°21' W 079°55'0 0.0
2018-Feb-17 14:59N 09°21' W 079°55'0 0.0
2018-Feb-17 14:29N 09°21' W 079°55'0 0.5
2018-Feb-17 14:00N 09°21' W 079°55'2 4.6
2018-Feb-17 13:30N 09°23' W 079°55'4 7.0
2018-Feb-17 13:00N 09°27' W 079°55'3 5.3
2018-Feb-17 12:30N 09°29' W 079°54'  

Dump ship's entire track history